Time;durP1;ratioP1;P1;durP2;ratioP2;P2;SDS_P1;SDS_P2;PMS_P1;PMS_P2;Temp;Humidity;BMP_temperature;BMP_pressure;BME280_temperature;BME280_humidity;BME280_pressure;Samples;Min_cycle;Max_cycle;Signal;HPM_P1;HPM_P2
2022/07/25 00:02:06;;;;;;;5.72;4.60;;;22.30;99.90;;;;;;5117142;28;20048;-85
2022/07/25 00:04:32;;;;;;;6.40;5.13;;;22.30;99.90;;;;;;5116770;28;20062;-85
2022/07/25 00:06:57;;;;;;;7.22;4.95;;;22.30;99.90;;;;;;5116730;28;20388;-85
2022/07/25 00:10:00;;;;;;;7.43;5.10;;;22.30;99.90;;;;;;5098860;28;20047;-85
2022/07/25 00:12:25;;;;;;;9.30;5.68;;;22.20;99.90;;;;;;5098321;28;20043;-85
2022/07/25 00:14:51;;;;;;;7.95;5.10;;;22.20;99.90;;;;;;5099442;28;20062;-84
2022/07/25 00:17:17;;;;;;;5.88;5.22;;;22.20;99.90;;;;;;5098494;28;20044;-85
2022/07/25 00:19:42;;;;;;;6.47;5.55;;;22.20;99.90;;;;;;5116728;28;20059;-86
2022/07/25 00:22:08;;;;;;;6.68;5.40;;;22.10;99.90;;;;;;5081552;28;20052;-86
2022/07/25 00:28:16;;;;;;;8.65;5.80;;;22.10;99.90;;;;;;5116528;28;20038;-85
2022/07/25 00:30:41;;;;;;;6.93;5.63;;;22.10;99.90;;;;;;5098574;28;20442;-86
2022/07/25 00:33:07;;;;;;;9.20;6.25;;;22.00;99.90;;;;;;5081987;28;20055;-84
2022/07/25 00:35:33;;;;;;;7.50;6.05;;;22.00;99.90;;;;;;5116216;28;20051;-85
2022/07/25 00:37:59;;;;;;;11.13;6.43;;;22.00;99.90;;;;;;5098185;28;20052;-84
2022/07/25 00:40:24;;;;;;;8.32;6.28;;;22.00;99.90;;;;;;5116351;28;20131;-84
2022/07/25 00:42:58;;;;;;;9.80;6.15;;;22.00;99.90;;;;;;5098945;28;20056;-84
2022/07/25 00:45:24;;;;;;;9.45;6.78;;;22.00;99.90;;;;;;5116679;28;20058;-86
2022/07/25 00:47:49;;;;;;;10.77;6.80;;;21.90;99.90;;;;;;5116345;28;20043;-85
2022/07/25 00:50:15;;;;;;;7.53;6.50;;;21.90;99.90;;;;;;5098514;28;20043;-85
2022/07/25 00:52:41;;;;;;;9.43;7.40;;;21.90;99.90;;;;;;5116177;28;20130;-85
2022/07/25 00:55:07;;;;;;;8.85;7.10;;;21.80;99.90;;;;;;5098365;28;20384;-85
2022/07/25 00:57:33;;;;;;;8.35;7.55;;;21.80;99.90;;;;;;5116141;27;20107;-85
2022/07/25 00:59:58;;;;;;;10.25;7.20;;;21.70;99.90;;;;;;5116007;28;20039;-85
2022/07/25 01:02:25;;;;;;;9.77;7.25;;;21.70;99.90;;;;;;5116760;28;20389;-86
2022/07/25 01:04:51;;;;;;;11.00;7.95;;;21.80;99.90;;;;;;5097006;28;20059;-84
2022/07/25 01:07:17;;;;;;;9.85;7.80;;;21.70;99.90;;;;;;5098520;28;20444;-86
2022/07/25 01:09:45;;;;;;;10.50;7.95;;;21.70;99.90;;;;;;5115681;28;20460;-85
2022/07/25 01:12:10;;;;;;;10.32;7.70;;;21.70;99.90;;;;;;5097832;28;20052;-86
2022/07/25 01:14:36;;;;;;;10.77;7.93;;;21.70;99.90;;;;;;5097922;28;20503;-84
2022/07/25 01:17:01;;;;;;;9.52;7.90;;;21.60;99.90;;;;;;5115976;28;20043;-85
2022/07/25 01:19:27;;;;;;;10.20;8.45;;;21.60;99.90;;;;;;5097798;28;20136;-85
2022/07/25 01:21:55;;;;;;;11.38;8.38;;;21.60;99.90;;;;;;5115619;28;20043;-85
2022/07/25 01:25:10;;;;;;;10.10;8.70;;;21.50;99.90;;;;;;5115620;28;20530;-85
2022/07/25 01:27:35;;;;;;;9.75;8.77;;;21.50;99.90;;;;;;5115412;28;20054;-84
2022/07/25 01:30:03;;;;;;;10.55;8.70;;;21.50;99.90;;;;;;5096871;28;20047;-84
2022/07/25 01:32:29;;;;;;;10.00;8.95;;;21.50;99.90;;;;;;5115257;28;20047;-85
2022/07/25 01:34:54;;;;;;;10.80;9.32;;;21.50;99.90;;;;;;5096883;28;20180;-84
2022/07/25 01:37:20;;;;;;;13.30;9.20;;;21.50;99.90;;;;;;5097422;28;20063;-88
2022/07/25 01:40:05;;;;;;;10.10;8.95;;;21.50;99.90;;;;;;5115634;28;20043;-85
2022/07/25 01:42:31;;;;;;;11.13;9.80;;;21.50;99.90;;;;;;5115123;28;20051;-84
2022/07/25 01:44:56;;;;;;;10.27;9.13;;;21.40;99.90;;;;;;5115193;28;20051;-85
2022/07/25 01:47:22;;;;;;;12.52;9.60;;;21.40;99.90;;;;;;5115146;28;20561;-85
2022/07/25 01:49:48;;;;;;;11.32;10.13;;;21.40;99.90;;;;;;5096634;28;20054;-84
2022/07/25 01:52:14;;;;;;;14.88;9.88;;;21.40;99.90;;;;;;5114792;28;20047;-84
2022/07/25 01:54:40;;;;;;;11.43;8.98;;;21.30;99.90;;;;;;5114804;28;20079;-84
2022/07/25 01:57:06;;;;;;;12.88;9.45;;;21.40;99.90;;;;;;5114953;27;20047;-84
2022/07/25 01:59:35;;;;;;;11.32;9.75;;;21.30;99.90;;;;;;5114583;28;20047;-84
2022/07/25 02:02:00;;;;;;;13.55;10.02;;;21.20;99.90;;;;;;5096379;28;20052;-85
2022/07/25 02:04:26;;;;;;;11.82;9.55;;;21.30;99.90;;;;;;5114720;28;20044;-83
2022/07/25 02:06:52;;;;;;;12.65;9.77;;;21.30;99.90;;;;;;5114608;28;20047;-84
2022/07/25 02:12:59;;;;;;;12.13;9.57;;;21.20;99.90;;;;;;5114286;28;20083;-83
2022/07/25 02:15:25;;;;;;;13.48;9.85;;;21.20;99.90;;;;;;5114026;28;20055;-84
2022/07/25 02:17:51;;;;;;;18.33;10.65;;;21.10;99.90;;;;;;5078901;28;20044;-84
2022/07/25 02:20:16;;;;;;;13.18;10.32;;;21.10;99.90;;;;;;5114440;28;20058;-84
2022/07/25 02:22:42;;;;;;;14.10;10.85;;;21.10;99.90;;;;;;5114210;28;20055;-84
2022/07/25 02:25:08;;;;;;;15.40;11.02;;;21.00;99.90;;;;;;5096451;28;20381;-83
2022/07/25 02:27:33;;;;;;;12.57;10.45;;;21.00;99.90;;;;;;5113778;28;20463;-84
2022/07/25 02:29:59;;;;;;;14.07;10.73;;;21.10;99.90;;;;;;5113964;28;20043;-85
2022/07/25 02:32:24;;;;;;;12.27;10.90;;;21.00;99.90;;;;;;5113899;28;20427;-84
2022/07/25 02:34:50;;;;;;;13.18;9.75;;;21.00;99.90;;;;;;5113734;28;20055;-84
2022/07/25 02:37:16;;;;;;;12.77;11.02;;;21.00;99.90;;;;;;5096239;28;20079;-84
2022/07/25 02:39:41;;;;;;;12.23;10.77;;;21.00;99.90;;;;;;5114276;28;20484;-85
2022/07/25 02:42:07;;;;;;;13.85;10.82;;;21.00;99.90;;;;;;5096838;28;20422;-85
2022/07/25 02:44:33;;;;;;;12.73;11.43;;;21.00;99.90;;;;;;5114018;28;20104;-83
2022/07/25 02:46:58;;;;;;;15.25;11.32;;;21.00;99.90;;;;;;5113761;28;20059;-84
2022/07/25 02:49:26;;;;;;;15.05;11.60;;;21.00;99.90;;;;;;5113639;28;20043;-84
2022/07/25 02:51:51;;;;;;;14.25;11.15;;;21.00;99.90;;;;;;5096282;28;20083;-85
2022/07/25 02:54:18;;;;;;;12.73;11.27;;;21.00;99.90;;;;;;5113824;28;20050;-84
2022/07/25 02:56:44;;;;;;;14.85;11.82;;;21.00;99.90;;;;;;5114010;28;20056;-83
2022/07/25 02:59:10;;;;;;;14.55;11.80;;;20.90;99.90;;;;;;5113494;28;20069;-85
2022/07/25 03:01:35;;;;;;;13.35;11.27;;;20.90;99.90;;;;;;5113451;28;20484;-83
2022/07/25 03:04:01;;;;;;;11.77;10.63;;;20.90;99.90;;;;;;5113586;28;20094;-85
2022/07/25 03:06:27;;;;;;;12.75;11.45;;;21.00;99.90;;;;;;5095518;28;20052;-83
2022/07/25 03:08:52;;;;;;;17.05;11.32;;;21.00;99.90;;;;;;5094876;28;20507;-84
2022/07/25 03:11:18;;;;;;;15.20;11.57;;;20.90;99.90;;;;;;5113526;28;20044;-84
2022/07/25 03:13:44;;;;;;;14.50;11.40;;;20.90;99.90;;;;;;5113374;28;20067;-86
2022/07/25 03:16:09;;;;;;;14.95;11.80;;;20.90;99.90;;;;;;5096069;28;20091;-84
2022/07/25 03:18:35;;;;;;;14.13;11.77;;;20.90;99.90;;;;;;5114086;28;20074;-84
2022/07/25 03:21:01;;;;;;;17.00;11.02;;;20.80;99.90;;;;;;5113735;28;20485;-84
2022/07/25 03:23:27;;;;;;;17.05;12.52;;;20.80;99.90;;;;;;5098424;28;20557;-84
2022/07/25 03:25:53;;;;;;;14.80;11.68;;;20.80;99.90;;;;;;5117995;28;20083;-84
2022/07/25 03:28:52;;;;;;;15.52;11.60;;;20.80;99.90;;;;;;5100213;28;20075;-85
2022/07/25 03:31:18;;;;;;;20.27;11.77;;;20.70;99.90;;;;;;5117670;28;20388;-83
2022/07/25 03:33:44;;;;;;;16.45;12.18;;;20.70;99.90;;;;;;5100022;28;20056;-85
2022/07/25 03:36:14;;;;;;;14.07;10.32;;;20.70;99.90;;;;;;5117925;28;20087;-86
2022/07/25 03:38:39;;;;;;;14.73;12.57;;;20.60;99.90;;;;;;5099371;28;20097;-84
2022/07/25 03:41:05;;;;;;;12.35;11.10;;;20.60;99.90;;;;;;5116703;28;20082;-85
2022/07/25 03:43:31;;;;;;;14.75;12.48;;;20.60;99.90;;;;;;5099146;28;20086;-85
2022/07/25 03:49:34;;;;;;;13.68;12.27;;;20.50;99.90;;;;;;5099492;28;20039;-85
2022/07/25 03:52:00;;;;;;;17.58;12.52;;;20.40;99.90;;;;;;5100515;28;20059;-86
2022/07/25 03:54:46;;;;;;;13.68;11.88;;;20.50;99.90;;;;;;5118243;27;20529;-85
2022/07/25 03:57:12;;;;;;;15.57;12.65;;;20.40;99.90;;;;;;5117243;28;20043;-85
2022/07/25 03:59:38;;;;;;;13.35;12.05;;;20.30;99.90;;;;;;5100395;28;20105;-84
2022/07/25 04:05:34;;;;;;;20.07;13.33;;;20.30;99.90;;;;;;5094664;28;20048;-84
2022/07/25 04:07:59;;;;;;;15.20;13.60;;;20.20;99.90;;;;;;5116776;28;20036;-84
2022/07/25 04:11:08;;;;;;;15.75;12.82;;;20.10;99.90;;;;;;5117004;28;20047;-84
2022/07/25 04:13:34;;;;;;;16.92;13.13;;;20.10;99.90;;;;;;5094521;28;20134;-84
2022/07/25 04:15:59;;;;;;;19.50;13.52;;;20.20;99.90;;;;;;5116889;28;20083;-84
2022/07/25 04:18:25;;;;;;;16.48;12.23;;;20.20;99.90;;;;;;5098858;28;20055;-84
2022/07/25 04:20:51;;;;;;;17.45;12.82;;;20.20;99.90;;;;;;5116871;28;20138;-85
2022/07/25 04:23:16;;;;;;;15.50;13.68;;;20.30;99.90;;;;;;5116622;28;20140;-89
2022/07/25 04:29:22;;;;;;;15.57;13.45;;;20.40;99.90;;;;;;5116478;28;20046;-84
2022/07/25 04:31:48;;;;;;;21.90;14.52;;;20.40;99.90;;;;;;5116708;28;20453;-84
2022/07/25 04:34:14;;;;;;;17.35;14.55;;;20.40;99.90;;;;;;5098130;28;20442;-85
2022/07/25 04:36:39;;;;;;;15.32;12.57;;;20.40;99.90;;;;;;5116557;28;20051;-84
2022/07/25 04:39:05;;;;;;;17.88;14.02;;;20.40;99.90;;;;;;5116756;28;20252;-85
2022/07/25 04:41:40;;;;;;;17.27;13.25;;;20.40;99.90;;;;;;5116580;28;20052;-84
2022/07/25 04:44:06;;;;;;;21.00;15.07;;;20.50;99.90;;;;;;5098300;28;20138;-85
2022/07/25 04:46:32;;;;;;;18.45;15.82;;;20.40;99.90;;;;;;5098500;28;20423;-85
2022/07/25 04:48:58;;;;;;;21.00;15.27;;;20.50;99.90;;;;;;5116496;28;20082;-84
2022/07/25 04:51:24;;;;;;;23.55;15.98;;;20.50;99.90;;;;;;5116407;28;20488;-85
2022/07/25 04:53:49;;;;;;;17.30;13.68;;;20.50;99.90;;;;;;5097984;28;20047;-84
2022/07/25 04:59:40;;;;;;;17.10;15.15;;;20.70;99.90;;;;;;5077658;28;20044;-85
2022/07/25 05:02:06;;;;;;;21.30;15.40;;;20.70;99.90;;;;;;5095431;28;20374;-84
2022/07/25 05:04:31;;;;;;;13.75;12.20;;;20.80;99.90;;;;;;5095719;28;20473;-85
2022/07/25 05:06:58;;;;;;;16.08;13.95;;;20.90;99.90;;;;;;5060527;28;20540;-85
2022/07/25 05:09:23;;;;;;;18.83;14.35;;;21.00;99.90;;;;;;5095586;28;20052;-84
2022/07/25 05:11:49;;;;;;;15.18;12.77;;;21.00;99.90;;;;;;5095418;28;20466;-85
2022/07/25 05:14:15;;;;;;;13.23;11.25;;;21.10;99.90;;;;;;5077765;28;20048;-84
2022/07/25 05:16:40;;;;;;;15.45;13.88;;;21.20;99.90;;;;;;5095290;28;20078;-84
2022/07/25 05:19:07;;;;;;;18.08;15.13;;;21.30;99.90;;;;;;5077705;28;20481;-84
2022/07/25 05:21:33;;;;;;;17.67;15.18;;;21.30;99.90;;;;;;5077639;28;20044;-85
2022/07/25 05:23:58;;;;;;;19.50;14.82;;;21.30;99.90;;;;;;5096019;28;20044;-85
2022/07/25 05:26:24;;;;;;;18.58;15.23;;;21.50;99.90;;;;;;5095676;28;20385;-84
2022/07/25 05:28:49;;;;;;;18.00;14.63;;;21.50;99.90;;;;;;5077126;28;20040;-85
2022/07/25 05:31:15;;;;;;;17.45;14.98;;;21.40;99.90;;;;;;5095780;28;20048;-92
2022/07/25 05:33:41;;;;;;;19.13;15.27;;;21.60;99.90;;;;;;5095178;28;20489;-84
2022/07/25 05:36:07;;;;;;;17.75;14.55;;;21.60;99.90;;;;;;5060481;28;20139;-85
2022/07/25 05:38:36;;;;;;;19.08;15.02;;;21.70;99.90;;;;;;5095749;28;20036;-85
2022/07/25 05:45:05;;;;;;;16.50;14.73;;;21.80;99.90;;;;;;5094121;28;20118;-85
2022/07/25 05:47:31;;;;;;;16.10;13.55;;;21.90;99.90;;;;;;5094927;28;20063;-85
2022/07/25 05:49:57;;;;;;;17.33;14.18;;;21.90;99.90;;;;;;5076648;28;20044;-85
2022/07/25 05:52:30;;;;;;;15.93;13.60;;;21.90;99.90;;;;;;5094865;28;20055;-85
2022/07/25 05:54:56;;;;;;;15.95;13.90;;;22.00;99.90;;;;;;5094492;28;20079;-85
2022/07/25 05:57:22;;;;;;;16.20;13.73;;;22.00;99.90;;;;;;5076956;28;20445;-86
2022/07/25 05:59:48;;;;;;;20.00;15.27;;;22.20;99.90;;;;;;5096769;28;20496;-85
2022/07/25 06:02:13;;;;;;;15.52;13.55;;;22.30;99.90;;;;;;5114508;28;20051;-84
2022/07/25 06:04:39;;;;;;;17.02;13.00;;;22.40;99.90;;;;;;5096123;28;20047;-84
2022/07/25 06:07:04;;;;;;;17.25;13.95;;;22.50;99.90;;;;;;5096609;28;20099;-86
2022/07/25 06:09:30;;;;;;;21.27;13.50;;;22.60;99.90;;;;;;5096552;28;20093;-84
2022/07/25 06:11:56;;;;;;;18.35;13.40;;;22.60;99.90;;;;;;5096632;28;20199;-84
2022/07/25 06:14:22;;;;;;;17.80;13.50;;;22.70;99.90;;;;;;5114346;28;20044;-84
2022/07/25 06:16:47;;;;;;;17.50;12.98;;;22.80;99.90;;;;;;5114657;28;20074;-84
2022/07/25 06:19:13;;;;;;;17.45;13.65;;;22.80;99.90;;;;;;5097911;28;20124;-85
2022/07/25 06:21:40;;;;;;;18.08;12.88;;;22.90;99.90;;;;;;5098484;28;20048;-85
2022/07/25 06:24:05;;;;;;;15.35;12.75;;;23.00;99.90;;;;;;5115286;28;20043;-84
2022/07/25 06:27:12;;;;;;;16.90;11.63;;;23.00;99.90;;;;;;5097509;28;20051;-84
2022/07/25 06:29:38;;;;;;;17.30;11.55;;;23.10;99.90;;;;;;5096092;28;20051;-84
2022/07/25 06:32:04;;;;;;;13.70;11.18;;;23.20;99.90;;;;;;5097018;28;20047;-84
2022/07/25 06:34:29;;;;;;;16.05;10.95;;;23.30;99.90;;;;;;5095387;28;20051;-84
2022/07/25 06:36:56;;;;;;;14.55;11.07;;;23.40;99.90;;;;;;5096142;28;20513;-83
2022/07/25 06:39:22;;;;;;;12.15;9.90;;;23.60;99.90;;;;;;5098644;28;20046;-84
2022/07/25 06:41:48;;;;;;;12.57;10.13;;;23.70;99.90;;;;;;5114131;28;20126;-84
2022/07/25 06:44:14;;;;;;;13.68;9.70;;;23.80;99.90;;;;;;5078735;28;20091;-84
2022/07/25 06:46:40;;;;;;;10.20;9.07;;;23.90;99.90;;;;;;5113993;28;20444;-85
2022/07/25 06:49:06;;;;;;;10.73;9.13;;;24.30;99.90;;;;;;5095666;28;20135;-84
2022/07/25 06:51:32;;;;;;;13.25;9.90;;;24.40;99.90;;;;;;5096409;28;20127;-84
2022/07/25 06:53:58;;;;;;;12.68;9.25;;;24.70;99.90;;;;;;5095721;28;20039;-84
2022/07/25 06:56:23;;;;;;;10.85;9.70;;;24.80;99.90;;;;;;5113934;28;20043;-84
2022/07/25 06:58:49;;;;;;;12.32;9.20;;;24.90;99.90;;;;;;5096683;27;20039;-87
2022/07/25 07:01:15;;;;;;;11.25;9.10;;;25.10;99.90;;;;;;5078795;28;20055;-85
2022/07/25 07:03:42;;;;;;;11.20;9.05;;;25.20;99.90;;;;;;5114238;28;20051;-86
2022/07/25 07:06:08;;;;;;;11.25;10.00;;;25.30;99.90;;;;;;5114043;28;20051;-85
2022/07/25 07:08:34;;;;;;;13.75;9.57;;;25.40;99.90;;;;;;5095883;28;20039;-84
2022/07/25 07:11:00;;;;;;;14.85;8.98;;;25.40;99.90;;;;;;5113943;28;20089;-84
2022/07/25 07:13:26;;;;;;;13.68;8.68;;;25.40;99.90;;;;;;5096262;28;20051;-86
2022/07/25 07:15:54;;;;;;;9.23;8.25;;;25.60;99.90;;;;;;5096394;28;20052;-86
2022/07/25 07:18:20;;;;;;;19.90;9.23;;;25.80;99.90;;;;;;5113906;28;20143;-87
2022/07/25 07:20:46;;;;;;;10.80;8.73;;;25.90;99.90;;;;;;5095179;28;20092;-86
2022/07/25 07:23:23;;;;;;;11.43;7.93;;;25.90;99.90;;;;;;5096863;28;20369;-88
2022/07/25 07:26:07;;;;;;;12.07;9.27;;;25.90;99.90;;;;;;5095901;28;20051;-86
2022/07/25 07:28:33;;;;;;;16.95;9.88;;;26.00;99.90;;;;;;5096019;28;20070;-85
2022/07/25 07:30:59;;;;;;;14.02;9.38;;;25.90;99.90;;;;;;5095402;28;20473;-87
2022/07/25 07:33:24;;;;;;;11.50;10.30;;;25.80;99.90;;;;;;5095897;28;20047;-89
2022/07/25 07:35:50;;;;;;;15.02;9.57;;;25.60;99.90;;;;;;5095254;28;20053;-86
2022/07/25 07:38:16;;;;;;;12.68;10.75;;;25.50;99.90;;;;;;5078851;28;20090;-86
2022/07/25 07:40:42;;;;;;;12.95;10.18;;;25.30;99.90;;;;;;5095465;28;20055;-88
2022/07/25 07:43:08;;;;;;;11.23;10.07;;;25.20;99.90;;;;;;5095606;28;20127;-84
2022/07/25 07:45:34;;;;;;;13.48;9.98;;;25.10;99.90;;;;;;5113275;28;20139;-83
2022/07/25 07:48:00;;;;;;;13.85;9.93;;;24.90;99.90;;;;;;5113556;28;20396;-85
2022/07/25 07:50:27;;;;;;;11.73;9.20;;;24.90;99.90;;;;;;5094177;28;20051;-87
2022/07/25 07:52:54;;;;;;;11.40;8.48;;;25.10;99.90;;;;;;5078983;28;20040;-87
2022/07/25 07:58:06;;;;;;;9.65;8.68;;;25.90;99.90;;;;;;5095253;28;20113;-85
2022/07/25 08:00:35;;;;;;;13.52;8.52;;;26.20;98.90;;;;;;5094886;28;20047;-87
2022/07/25 08:03:02;;;;;;;9.50;7.53;;;26.50;95.70;;;;;;5113513;28;20055;-85
2022/07/25 08:05:33;;;;;;;13.98;8.32;;;26.80;97.10;;;;;;5094891;28;20047;-85
2022/07/25 08:07:59;;;;;;;8.27;7.05;;;26.80;90.50;;;;;;5113608;28;20104;-85
2022/07/25 08:10:42;;;;;;;9.57;7.90;;;26.90;94.90;;;;;;5099046;28;20051;-86
2022/07/25 08:13:16;;;;;;;12.13;8.10;;;26.70;96.20;;;;;;5098864;28;20045;-86
2022/07/25 08:15:44;;;;;;;10.35;7.60;;;26.30;97.20;;;;;;5098931;28;20052;-85
2022/07/25 08:18:10;;;;;;;10.48;7.70;;;25.90;99.90;;;;;;5117134;28;20366;-85
2022/07/25 08:20:36;;;;;;;11.30;8.30;;;25.90;99.90;;;;;;5117313;28;20048;-85
2022/07/25 08:23:02;;;;;;;10.32;7.50;;;26.10;99.90;;;;;;5118071;28;20457;-85
2022/07/25 08:25:28;;;;;;;11.75;8.27;;;26.30;99.90;;;;;;5098963;28;20423;-84
2022/07/25 08:27:54;;;;;;;10.57;8.00;;;26.30;99.90;;;;;;5099114;28;20043;-85
2022/07/25 08:30:20;;;;;;;9.45;7.50;;;26.10;99.90;;;;;;5098235;28;20117;-85
2022/07/25 08:32:53;;;;;;;11.23;8.45;;;26.00;99.90;;;;;;5099098;28;20079;-85
2022/07/25 08:35:20;;;;;;;8.98;7.00;;;25.80;99.90;;;;;;5117403;28;20120;-85
2022/07/25 08:37:47;;;;;;;8.75;7.25;;;25.60;99.90;;;;;;5098664;28;20172;-87
2022/07/25 08:40:51;;;;;;;8.82;7.30;;;25.60;99.90;;;;;;5099414;28;20056;-85
2022/07/25 08:43:17;;;;;;;9.90;6.88;;;25.70;99.90;;;;;;5116362;28;20055;-85
2022/07/25 08:45:48;;;;;;;9.85;7.20;;;25.60;99.90;;;;;;5098316;28;20062;-84
2022/07/25 08:48:18;;;;;;;13.63;7.22;;;25.50;99.90;;;;;;5098598;28;20043;-85
2022/07/25 08:50:44;;;;;;;10.18;6.70;;;25.40;99.90;;;;;;5099634;28;20108;-86
2022/07/25 08:53:11;;;;;;;10.73;6.75;;;25.20;99.90;;;;;;5082205;28;20533;-87
2022/07/25 08:55:37;;;;;;;11.52;6.25;;;25.00;99.90;;;;;;5098789;28;20087;-85
2022/07/25 08:58:02;;;;;;;8.68;6.10;;;25.10;99.90;;;;;;5098108;28;20062;-84
2022/07/25 09:00:28;;;;;;;5.80;5.10;;;25.30;99.90;;;;;;5115925;28;20059;-84
2022/07/25 09:03:00;;;;;;;9.15;5.20;;;25.40;99.90;;;;;;5115896;28;20044;-84
2022/07/25 09:05:27;;;;;;;8.48;5.28;;;25.50;99.90;;;;;;5097885;28;20047;-86
2022/07/25 09:08:11;;;;;;;5.80;4.47;;;25.60;99.90;;;;;;5098301;28;20123;-86
2022/07/25 09:10:38;;;;;;;5.32;3.85;;;25.60;99.90;;;;;;5081109;28;20051;-86
2022/07/25 09:13:06;;;;;;;5.50;3.47;;;25.60;99.90;;;;;;5097444;28;20051;-89
2022/07/25 09:15:38;;;;;;;4.38;3.30;;;25.70;99.90;;;;;;5115569;28;20404;-86
2022/07/25 09:18:06;;;;;;;4.47;2.65;;;25.70;99.00;;;;;;5097971;28;20063;-85
2022/07/25 09:20:46;;;;;;;3.33;2.28;;;25.80;96.10;;;;;;5100672;28;20048;-85
2022/07/25 09:23:33;;;;;;;4.90;2.53;;;25.90;98.80;;;;;;5115927;28;20035;-87
2022/07/25 09:26:02;;;;;;;4.03;2.05;;;26.00;97.30;;;;;;5097607;28;20044;-86
2022/07/25 09:28:28;;;;;;;2.05;1.85;;;26.00;86.20;;;;;;5081024;28;20043;-86
2022/07/25 09:30:59;;;;;;;2.08;1.80;;;26.00;82.10;;;;;;5116015;28;20384;-88
2022/07/25 09:33:32;;;;;;;3.08;1.98;;;26.00;77.80;;;;;;5097851;28;20047;-87
2022/07/25 09:36:10;;;;;;;2.95;2.00;;;26.40;77.60;;;;;;5097729;28;20556;-88
2022/07/25 09:38:36;;;;;;;5.03;2.42;;;27.20;78.00;;;;;;5098429;28;20048;-87
2022/07/25 09:41:21;;;;;;;3.70;2.20;;;27.80;72.70;;;;;;5117783;28;20043;-86
2022/07/25 09:43:46;;;;;;;4.15;1.90;;;28.10;70.20;;;;;;5080943;28;20051;-84
2022/07/25 09:46:12;;;;;;;4.38;1.73;;;28.00;67.10;;;;;;5116996;28;20051;-86
2022/07/25 09:48:39;;;;;;;4.15;2.42;;;28.00;69.00;;;;;;5115845;28;20043;-85
2022/07/25 09:51:06;;;;;;;2.97;1.70;;;28.00;67.60;;;;;;5097956;28;20092;-85
2022/07/25 09:53:32;;;;;;;3.45;2.00;;;27.90;69.30;;;;;;5080057;28;20078;-85
2022/07/25 09:55:58;;;;;;;5.32;2.20;;;27.50;70.70;;;;;;5096877;28;20051;-87
2022/07/25 09:58:28;;;;;;;5.28;2.25;;;27.00;75.60;;;;;;5079708;28;20047;-87
2022/07/25 10:01:04;;;;;;;6.43;2.30;;;26.50;87.80;;;;;;5114835;28;20554;-85
2022/07/25 10:03:49;;;;;;;5.45;2.80;;;26.10;92.30;;;;;;5096620;28;20563;-90
2022/07/25 10:06:33;;;;;;;3.65;2.00;;;25.90;94.70;;;;;;5096717;28;20050;-85
2022/07/25 10:08:59;;;;;;;3.58;2.10;;;26.10;95.20;;;;;;5115109;28;20075;-85
2022/07/25 10:11:26;;;;;;;3.53;2.15;;;27.00;95.10;;;;;;5096788;28;20549;-85
2022/07/25 10:13:53;;;;;;;4.60;2.00;;;28.50;85.50;;;;;;5079520;28;20193;-86
2022/07/25 10:16:29;;;;;;;5.53;2.17;;;29.60;73.60;;;;;;5114838;28;20043;-85
2022/07/25 10:18:57;;;;;;;2.90;2.05;;;30.00;71.20;;;;;;5114538;28;20036;-88
2022/07/25 10:21:24;;;;;;;4.10;1.60;;;30.50;67.20;;;;;;5114459;28;20047;-87
2022/07/25 10:24:06;;;;;;;2.42;1.40;;;31.00;64.00;;;;;;5096575;28;20062;-88
2022/07/25 10:26:38;;;;;;;3.17;1.38;;;30.80;63.30;;;;;;5114118;28;20059;-84
2022/07/25 10:29:10;;;;;;;1.83;1.25;;;30.50;62.80;;;;;;5062867;28;20044;-88
2022/07/25 10:31:40;;;;;;;3.55;1.20;;;30.20;63.50;;;;;;5095842;28;20162;-86
2022/07/25 10:34:08;;;;;;;2.28;0.95;;;29.60;65.30;;;;;;5114881;28;20063;-87
2022/07/25 10:36:44;;;;;;;4.05;1.40;;;29.00;68.30;;;;;;5079773;28;20095;-87
2022/07/25 10:39:13;;;;;;;1.52;1.17;;;28.30;73.50;;;;;;5114085;28;20512;-86
2022/07/25 10:41:51;;;;;;;5.35;1.17;;;27.80;81.10;;;;;;5096098;28;20046;-86
2022/07/25 10:44:16;;;;;;;4.10;1.20;;;27.40;90.30;;;;;;5079519;28;20124;-87
2022/07/25 10:46:43;;;;;;;1.90;1.30;;;27.10;98.30;;;;;;5096111;28;20489;-87
2022/07/25 10:49:20;;;;;;;4.25;1.48;;;26.90;99.20;;;;;;5095558;28;20123;-88
2022/07/25 10:51:58;;;;;;;2.85;1.25;;;26.60;98.20;;;;;;5078759;28;20055;-86
2022/07/25 10:54:24;;;;;;;4.45;1.30;;;26.40;99.90;;;;;;5095547;28;20100;-85
2022/07/25 10:56:58;;;;;;;3.85;1.38;;;26.20;99.90;;;;;;5095590;28;20063;-87
2022/07/25 10:59:34;;;;;;;3.70;1.20;;;26.20;99.90;;;;;;5095312;28;20118;-85
2022/07/25 11:02:01;;;;;;;2.67;1.20;;;26.20;99.90;;;;;;5095141;28;20112;-88
2022/07/25 11:04:27;;;;;;;4.22;1.17;;;26.20;99.90;;;;;;5113477;28;20126;-84
2022/07/25 11:06:53;;;;;;;5.47;1.40;;;26.00;99.90;;;;;;5095102;28;20039;-82
2022/07/25 11:09:23;;;;;;;5.72;1.70;;;25.70;99.90;;;;;;5113261;28;20108;-87
2022/07/25 11:11:51;;;;;;;3.95;1.40;;;25.50;99.90;;;;;;5095419;28;20109;-85
2022/07/25 11:14:21;;;;;;;5.80;1.77;;;25.40;99.90;;;;;;5095464;28;20425;-84
2022/07/25 11:16:49;;;;;;;5.03;1.90;;;25.60;99.90;;;;;;5113088;28;20053;-87
2022/07/25 11:19:25;;;;;;;6.13;1.77;;;25.90;99.90;;;;;;5095649;28;20044;-85
2022/07/25 11:21:52;;;;;;;5.45;1.83;;;26.60;99.90;;;;;;5113152;28;20382;-85
2022/07/25 11:24:18;;;;;;;8.70;2.28;;;27.90;98.70;;;;;;5113640;28;20047;-86
2022/07/25 11:26:49;;;;;;;7.60;2.33;;;28.60;93.10;;;;;;5095535;28;20058;-86
2022/07/25 11:29:19;;;;;;;4.35;1.63;;;28.60;92.20;;;;;;5095051;28;20043;-87
2022/07/25 11:31:55;;;;;;;8.30;2.28;;;28.10;92.80;;;;;;5113103;28;20051;-84
2022/07/25 11:34:24;;;;;;;4.63;1.77;;;27.50;93.70;;;;;;5095177;28;20134;-87
2022/07/25 11:36:57;;;;;;;5.93;1.90;;;27.10;98.40;;;;;;5078730;28;20095;-86
2022/07/25 11:39:27;;;;;;;7.18;1.70;;;27.00;98.50;;;;;;5095606;28;20051;-84
2022/07/25 11:42:07;;;;;;;4.85;1.88;;;26.90;96.70;;;;;;5095299;28;20052;-85
2022/07/25 11:44:45;;;;;;;5.72;2.08;;;26.70;97.50;;;;;;5098247;28;20120;-83
2022/07/25 11:47:28;;;;;;;11.18;3.08;;;26.60;96.30;;;;;;5117054;28;20139;-84
2022/07/25 11:49:56;;;;;;;5.82;2.10;;;26.70;97.00;;;;;;5117127;28;20442;-85
2022/07/25 11:52:30;;;;;;;7.75;2.00;;;26.90;97.50;;;;;;5098774;28;20047;-84
2022/07/25 11:55:02;;;;;;;6.15;2.72;;;27.50;96.40;;;;;;5116625;28;20488;-85
2022/07/25 11:57:31;;;;;;;5.47;1.77;;;27.80;90.90;;;;;;5098953;28;20044;-88
2022/07/25 12:00:01;;;;;;;7.85;2.03;;;28.00;89.80;;;;;;5098543;28;20134;-84
2022/07/25 12:02:32;;;;;;;6.32;1.58;;;28.60;78.70;;;;;;5099532;28;20487;-85
2022/07/25 12:05:04;;;;;;;8.02;2.08;;;28.60;77.30;;;;;;5098515;28;20055;-84
2022/07/25 12:07:50;;;;;;;6.40;2.10;;;28.20;80.20;;;;;;5117213;28;20044;-85
2022/07/25 12:10:30;;;;;;;7.20;1.98;;;27.50;90.80;;;;;;5098014;28;20051;-87
2022/07/25 12:12:56;;;;;;;9.38;2.25;;;26.80;95.50;;;;;;5118256;28;20055;-85
2022/07/25 12:15:25;;;;;;;7.40;1.77;;;26.20;99.00;;;;;;5098593;28;20485;-84
2022/07/25 12:17:52;;;;;;;7.32;1.80;;;25.90;99.50;;;;;;5083061;28;20055;-88
2022/07/25 12:20:22;;;;;;;4.70;1.70;;;25.80;99.80;;;;;;5099197;28;20056;-89
2022/07/25 12:22:50;;;;;;;11.10;1.97;;;25.70;99.70;;;;;;5082384;28;20097;-87
2022/07/25 12:25:28;;;;;;;8.15;1.77;;;25.70;99.90;;;;;;5117570;28;20431;-83
2022/07/25 12:27:54;;;;;;;3.95;1.92;;;25.70;98.80;;;;;;5098518;28;20416;-86
2022/07/25 12:30:23;;;;;;;4.43;1.48;;;26.10;96.70;;;;;;5081678;28;20411;-87
2022/07/25 12:32:49;;;;;;;5.95;1.85;;;26.70;91.40;;;;;;5098961;28;20135;-85
2022/07/25 12:35:15;;;;;;;6.03;1.45;;;27.10;89.20;;;;;;5117086;28;20437;-86
2022/07/25 12:37:42;;;;;;;4.88;1.40;;;27.70;82.00;;;;;;5098527;28;20050;-85
2022/07/25 12:40:10;;;;;;;6.10;1.50;;;28.10;79.30;;;;;;5098556;28;20396;-84
2022/07/25 12:42:36;;;;;;;5.82;1.50;;;28.20;78.40;;;;;;5098908;28;20083;-85
2022/07/25 12:45:07;;;;;;;6.70;1.77;;;28.10;76.80;;;;;;5117446;28;20496;-85
2022/07/25 12:47:33;;;;;;;4.07;1.40;;;27.90;73.60;;;;;;5100330;28;20051;-87
2022/07/25 12:50:00;;;;;;;4.10;1.50;;;27.50;80.00;;;;;;5099851;28;20043;-88
2022/07/25 12:52:26;;;;;;;5.28;1.40;;;27.10;85.60;;;;;;5118843;28;20099;-86
2022/07/25 12:54:52;;;;;;;8.63;1.65;;;26.80;92.10;;;;;;5099978;28;20130;-86
2022/07/25 12:57:19;;;;;;;10.50;1.58;;;26.40;90.80;;;;;;5101795;28;20044;-85
2022/07/25 12:59:46;;;;;;;6.70;1.80;;;26.00;93.10;;;;;;5100450;28;20112;-85
2022/07/25 13:02:12;;;;;;;6.40;1.67;;;25.70;93.50;;;;;;5119877;28;20112;-88
2022/07/25 13:04:38;;;;;;;4.80;1.45;;;25.60;95.70;;;;;;5119249;28;20043;-86
2022/07/25 13:07:04;;;;;;;6.15;1.63;;;25.70;96.30;;;;;;5100512;28;20393;-89
2022/07/25 13:09:30;;;;;;;6.45;2.38;;;25.80;94.10;;;;;;5082622;28;20138;-86
2022/07/25 13:11:57;;;;;;;5.32;1.55;;;25.80;93.90;;;;;;5099685;28;20055;-86
2022/07/25 13:14:23;;;;;;;6.40;1.90;;;25.60;93.90;;;;;;5098488;28;20047;-85